sensor_id;sensor_type;location;lat;lon;timestamp;P1;durP1;ratioP1;P2;durP2;ratioP2
21501;SDS011;27639;48.674;9.242;2022-09-09T00:03:47;4.68;;;1.67;;
21501;SDS011;27639;48.674;9.242;2022-09-09T00:09:12;4.25;;;1.27;;
21501;SDS011;27639;48.674;9.242;2022-09-09T00:11:44;5.35;;;1.38;;
21501;SDS011;27639;48.674;9.242;2022-09-09T00:17:08;3.65;;;1.40;;
21501;SDS011;27639;48.674;9.242;2022-09-09T00:19:50;2.67;;;1.25;;
21501;SDS011;27639;48.674;9.242;2022-09-09T00:22:25;4.22;;;1.45;;
21501;SDS011;27639;48.674;9.242;2022-09-09T00:24:56;5.63;;;1.60;;
21501;SDS011;27639;48.674;9.242;2022-09-09T00:27:47;4.60;;;1.30;;
21501;SDS011;27639;48.674;9.242;2022-09-09T00:30:20;4.13;;;1.45;;
21501;SDS011;27639;48.674;9.242;2022-09-09T00:32:55;6.93;;;1.45;;
21501;SDS011;27639;48.674;9.242;2022-09-09T00:35:32;5.88;;;1.50;;
21501;SDS011;27639;48.674;9.242;2022-09-09T00:38:01;3.60;;;1.70;;
21501;SDS011;27639;48.674;9.242;2022-09-09T00:40:35;3.08;;;1.50;;
21501;SDS011;27639;48.674;9.242;2022-09-09T00:43:13;3.92;;;1.50;;
21501;SDS011;27639;48.674;9.242;2022-09-09T00:57:00;4.70;;;1.63;;
21501;SDS011;27639;48.674;9.242;2022-09-09T00:59:51;5.20;;;1.48;;
21501;SDS011;27639;48.674;9.242;2022-09-09T01:02:39;3.28;;;1.58;;
21501;SDS011;27639;48.674;9.242;2022-09-09T01:05:35;2.63;;;1.35;;
21501;SDS011;27639;48.674;9.242;2022-09-09T01:11:10;3.50;;;1.75;;
21501;SDS011;27639;48.674;9.242;2022-09-09T01:13:45;4.10;;;1.48;;
21501;SDS011;27639;48.674;9.242;2022-09-09T01:16:13;5.25;;;1.52;;
21501;SDS011;27639;48.674;9.242;2022-09-09T01:18:44;6.10;;;1.70;;
21501;SDS011;27639;48.674;9.242;2022-09-09T01:26:25;4.25;;;1.30;;
21501;SDS011;27639;48.674;9.242;2022-09-09T01:28:54;3.92;;;1.25;;
21501;SDS011;27639;48.674;9.242;2022-09-09T01:31:21;4.22;;;1.45;;
21501;SDS011;27639;48.674;9.242;2022-09-09T01:34:00;7.05;;;1.70;;
21501;SDS011;27639;48.674;9.242;2022-09-09T01:36:28;5.53;;;1.70;;
21501;SDS011;27639;48.674;9.242;2022-09-09T01:41:25;4.78;;;1.33;;
21501;SDS011;27639;48.674;9.242;2022-09-09T01:43:52;3.83;;;1.40;;
21501;SDS011;27639;48.674;9.242;2022-09-09T01:46:20;3.65;;;1.55;;
21501;SDS011;27639;48.674;9.242;2022-09-09T01:48:48;4.43;;;1.60;;
21501;SDS011;27639;48.674;9.242;2022-09-09T01:51:16;5.00;;;1.42;;
21501;SDS011;27639;48.674;9.242;2022-09-09T01:53:41;4.40;;;1.52;;
21501;SDS011;27639;48.674;9.242;2022-09-09T01:59:15;4.68;;;1.73;;
21501;SDS011;27639;48.674;9.242;2022-09-09T02:04:50;2.97;;;1.60;;
21501;SDS011;27639;48.674;9.242;2022-09-09T02:10:27;5.10;;;1.55;;
21501;SDS011;27639;48.674;9.242;2022-09-09T02:12:56;3.65;;;1.60;;
21501;SDS011;27639;48.674;9.242;2022-09-09T02:18:10;6.63;;;1.85;;
21501;SDS011;27639;48.674;9.242;2022-09-09T02:20:39;3.80;;;1.63;;
21501;SDS011;27639;48.674;9.242;2022-09-09T02:23:08;3.38;;;1.33;;
21501;SDS011;27639;48.674;9.242;2022-09-09T02:25:36;3.30;;;1.30;;
21501;SDS011;27639;48.674;9.242;2022-09-09T02:28:03;4.57;;;1.45;;
21501;SDS011;27639;48.674;9.242;2022-09-09T02:30:33;4.45;;;1.50;;
21501;SDS011;27639;48.674;9.242;2022-09-09T02:33:01;5.60;;;1.40;;
21501;SDS011;27639;48.674;9.242;2022-09-09T02:35:31;3.72;;;1.40;;
21501;SDS011;27639;48.674;9.242;2022-09-09T02:38:02;4.45;;;1.73;;
21501;SDS011;27639;48.674;9.242;2022-09-09T02:40:31;4.45;;;1.58;;
21501;SDS011;27639;48.674;9.242;2022-09-09T02:42:56;5.25;;;1.80;;
21501;SDS011;27639;48.674;9.242;2022-09-09T02:45:25;3.65;;;1.42;;
21501;SDS011;27639;48.674;9.242;2022-09-09T02:50:30;2.50;;;1.15;;
21501;SDS011;27639;48.674;9.242;2022-09-09T02:53:17;4.10;;;1.20;;
21501;SDS011;27639;48.674;9.242;2022-09-09T02:55:48;4.47;;;1.63;;
21501;SDS011;27639;48.674;9.242;2022-09-09T02:58:29;3.47;;;1.38;;
21501;SDS011;27639;48.674;9.242;2022-09-09T03:00:55;3.63;;;1.27;;
21501;SDS011;27639;48.674;9.242;2022-09-09T03:03:22;5.05;;;1.42;;
21501;SDS011;27639;48.674;9.242;2022-09-09T03:05:48;3.47;;;1.48;;
21501;SDS011;27639;48.674;9.242;2022-09-09T03:08:14;3.33;;;1.20;;
21501;SDS011;27639;48.674;9.242;2022-09-09T03:10:40;4.00;;;1.48;;
21501;SDS011;27639;48.674;9.242;2022-09-09T03:13:06;3.40;;;1.33;;
21501;SDS011;27639;48.674;9.242;2022-09-09T03:15:32;4.35;;;1.55;;
21501;SDS011;27639;48.674;9.242;2022-09-09T03:17:59;3.95;;;1.42;;
21501;SDS011;27639;48.674;9.242;2022-09-09T03:20:25;3.28;;;1.35;;
21501;SDS011;27639;48.674;9.242;2022-09-09T03:22:55;3.85;;;1.55;;
21501;SDS011;27639;48.674;9.242;2022-09-09T03:25:22;4.03;;;1.33;;
21501;SDS011;27639;48.674;9.242;2022-09-09T03:27:51;5.00;;;1.20;;
21501;SDS011;27639;48.674;9.242;2022-09-09T03:30:20;4.75;;;1.27;;
21501;SDS011;27639;48.674;9.242;2022-09-09T03:32:50;4.78;;;1.50;;
21501;SDS011;27639;48.674;9.242;2022-09-09T03:35:16;2.83;;;1.20;;
21501;SDS011;27639;48.674;9.242;2022-09-09T03:37:42;3.50;;;1.00;;
21501;SDS011;27639;48.674;9.242;2022-09-09T03:40:07;3.75;;;1.20;;
21501;SDS011;27639;48.674;9.242;2022-09-09T03:42:35;2.30;;;0.95;;
21501;SDS011;27639;48.674;9.242;2022-09-09T03:45:02;2.67;;;0.90;;
21501;SDS011;27639;48.674;9.242;2022-09-09T03:47:28;4.30;;;0.93;;
21501;SDS011;27639;48.674;9.242;2022-09-09T03:49:54;3.75;;;1.20;;
21501;SDS011;27639;48.674;9.242;2022-09-09T03:52:20;3.88;;;1.10;;
21501;SDS011;27639;48.674;9.242;2022-09-09T03:54:49;2.63;;;1.02;;
21501;SDS011;27639;48.674;9.242;2022-09-09T03:57:16;6.55;;;1.15;;
21501;SDS011;27639;48.674;9.242;2022-09-09T03:59:42;2.90;;;1.13;;
21501;SDS011;27639;48.674;9.242;2022-09-09T04:02:08;3.50;;;1.10;;
21501;SDS011;27639;48.674;9.242;2022-09-09T04:04:34;4.35;;;1.20;;
21501;SDS011;27639;48.674;9.242;2022-09-09T04:07:00;3.53;;;1.33;;
21501;SDS011;27639;48.674;9.242;2022-09-09T04:09:26;3.13;;;1.38;;
21501;SDS011;27639;48.674;9.242;2022-09-09T04:11:51;3.20;;;1.25;;
21501;SDS011;27639;48.674;9.242;2022-09-09T04:14:18;3.33;;;1.20;;
21501;SDS011;27639;48.674;9.242;2022-09-09T04:16:44;4.30;;;1.20;;
21501;SDS011;27639;48.674;9.242;2022-09-09T04:19:10;3.45;;;1.10;;
21501;SDS011;27639;48.674;9.242;2022-09-09T04:21:39;3.88;;;1.30;;
21501;SDS011;27639;48.674;9.242;2022-09-09T04:24:05;3.42;;;1.27;;
21501;SDS011;27639;48.674;9.242;2022-09-09T04:26:32;4.18;;;1.20;;
21501;SDS011;27639;48.674;9.242;2022-09-09T04:28:57;3.45;;;1.00;;
21501;SDS011;27639;48.674;9.242;2022-09-09T04:31:23;5.15;;;1.40;;
21501;SDS011;27639;48.674;9.242;2022-09-09T04:33:52;2.75;;;1.10;;
21501;SDS011;27639;48.674;9.242;2022-09-09T04:36:18;3.70;;;1.05;;
21501;SDS011;27639;48.674;9.242;2022-09-09T04:38:44;4.03;;;1.45;;
21501;SDS011;27639;48.674;9.242;2022-09-09T04:41:11;2.67;;;1.10;;
21501;SDS011;27639;48.674;9.242;2022-09-09T04:43:38;4.15;;;1.10;;
21501;SDS011;27639;48.674;9.242;2022-09-09T04:46:04;3.03;;;1.20;;
21501;SDS011;27639;48.674;9.242;2022-09-09T04:48:30;5.18;;;1.10;;
21501;SDS011;27639;48.674;9.242;2022-09-09T04:53:22;3.05;;;1.10;;
21501;SDS011;27639;48.674;9.242;2022-09-09T04:55:48;2.97;;;0.90;;
21501;SDS011;27639;48.674;9.242;2022-09-09T04:58:14;3.45;;;1.20;;
21501;SDS011;27639;48.674;9.242;2022-09-09T05:00:40;4.13;;;1.25;;
21501;SDS011;27639;48.674;9.242;2022-09-09T05:03:06;4.88;;;1.02;;
21501;SDS011;27639;48.674;9.242;2022-09-09T05:05:33;3.33;;;1.30;;
21501;SDS011;27639;48.674;9.242;2022-09-09T05:08:03;3.80;;;1.20;;
21501;SDS011;27639;48.674;9.242;2022-09-09T05:10:30;2.90;;;0.93;;
21501;SDS011;27639;48.674;9.242;2022-09-09T05:12:56;2.65;;;1.05;;
21501;SDS011;27639;48.674;9.242;2022-09-09T05:15:22;3.88;;;1.25;;
21501;SDS011;27639;48.674;9.242;2022-09-09T05:17:47;3.13;;;1.20;;
21501;SDS011;27639;48.674;9.242;2022-09-09T05:20:13;3.17;;;1.00;;
21501;SDS011;27639;48.674;9.242;2022-09-09T05:22:38;2.92;;;1.08;;
21501;SDS011;27639;48.674;9.242;2022-09-09T05:25:05;3.47;;;1.08;;
21501;SDS011;27639;48.674;9.242;2022-09-09T05:27:31;4.75;;;1.60;;
21501;SDS011;27639;48.674;9.242;2022-09-09T05:29:59;4.78;;;1.60;;
21501;SDS011;27639;48.674;9.242;2022-09-09T05:32:24;6.32;;;1.60;;
21501;SDS011;27639;48.674;9.242;2022-09-09T05:34:50;4.07;;;1.50;;
21501;SDS011;27639;48.674;9.242;2022-09-09T05:37:17;2.95;;;1.20;;
21501;SDS011;27639;48.674;9.242;2022-09-09T05:39:43;2.90;;;1.15;;
21501;SDS011;27639;48.674;9.242;2022-09-09T05:42:09;3.33;;;1.15;;
21501;SDS011;27639;48.674;9.242;2022-09-09T05:44:34;5.25;;;1.20;;
21501;SDS011;27639;48.674;9.242;2022-09-09T05:47:00;3.47;;;0.90;;
21501;SDS011;27639;48.674;9.242;2022-09-09T05:49:26;3.47;;;0.90;;
21501;SDS011;27639;48.674;9.242;2022-09-09T05:51:52;2.88;;;0.98;;
21501;SDS011;27639;48.674;9.242;2022-09-09T05:54:17;4.22;;;1.08;;
21501;SDS011;27639;48.674;9.242;2022-09-09T05:56:43;4.93;;;1.15;;
21501;SDS011;27639;48.674;9.242;2022-09-09T05:59:09;4.43;;;1.00;;
21501;SDS011;27639;48.674;9.242;2022-09-09T06:01:36;3.25;;;1.13;;
21501;SDS011;27639;48.674;9.242;2022-09-09T06:04:05;2.40;;;1.15;;
21501;SDS011;27639;48.674;9.242;2022-09-09T06:06:36;4.40;;;1.25;;
21501;SDS011;27639;48.674;9.242;2022-09-09T06:09:04;3.90;;;1.30;;
21501;SDS011;27639;48.674;9.242;2022-09-09T06:11:34;3.33;;;1.10;;
21501;SDS011;27639;48.674;9.242;2022-09-09T06:14:01;3.72;;;1.20;;
21501;SDS011;27639;48.674;9.242;2022-09-09T06:16:27;3.13;;;1.10;;
21501;SDS011;27639;48.674;9.242;2022-09-09T06:18:54;3.58;;;1.10;;
21501;SDS011;27639;48.674;9.242;2022-09-09T06:21:22;4.50;;;1.48;;
21501;SDS011;27639;48.674;9.242;2022-09-09T06:23:51;3.08;;;1.10;;
21501;SDS011;27639;48.674;9.242;2022-09-09T06:26:19;3.30;;;1.20;;
21501;SDS011;27639;48.674;9.242;2022-09-09T06:28:50;4.25;;;1.30;;
21501;SDS011;27639;48.674;9.242;2022-09-09T06:31:18;5.20;;;1.30;;
21501;SDS011;27639;48.674;9.242;2022-09-09T06:33:52;3.60;;;1.17;;
21501;SDS011;27639;48.674;9.242;2022-09-09T06:36:19;3.00;;;1.20;;
21501;SDS011;27639;48.674;9.242;2022-09-09T06:38:46;5.38;;;1.50;;
21501;SDS011;27639;48.674;9.242;2022-09-09T06:41:13;2.80;;;1.08;;
21501;SDS011;27639;48.674;9.242;2022-09-09T06:43:40;3.67;;;0.98;;
21501;SDS011;27639;48.674;9.242;2022-09-09T06:48:33;3.65;;;1.05;;
21501;SDS011;27639;48.674;9.242;2022-09-09T06:51:05;4.05;;;1.10;;
21501;SDS011;27639;48.674;9.242;2022-09-09T06:53:36;4.05;;;1.15;;
21501;SDS011;27639;48.674;9.242;2022-09-09T06:56:24;2.90;;;1.08;;
21501;SDS011;27639;48.674;9.242;2022-09-09T06:58:51;4.50;;;1.20;;
21501;SDS011;27639;48.674;9.242;2022-09-09T07:01:18;5.15;;;1.35;;
21501;SDS011;27639;48.674;9.242;2022-09-09T07:03:46;5.22;;;1.38;;
21501;SDS011;27639;48.674;9.242;2022-09-09T07:06:14;2.53;;;0.93;;
21501;SDS011;27639;48.674;9.242;2022-09-09T07:08:47;4.25;;;1.20;;
21501;SDS011;27639;48.674;9.242;2022-09-09T07:11:15;2.58;;;1.10;;
21501;SDS011;27639;48.674;9.242;2022-09-09T07:13:41;3.00;;;1.10;;
21501;SDS011;27639;48.674;9.242;2022-09-09T07:16:08;3.00;;;1.10;;
21501;SDS011;27639;48.674;9.242;2022-09-09T07:18:38;2.40;;;0.90;;
21501;SDS011;27639;48.674;9.242;2022-09-09T07:21:05;2.60;;;1.00;;
21501;SDS011;27639;48.674;9.242;2022-09-09T07:23:31;2.50;;;1.02;;
21501;SDS011;27639;48.674;9.242;2022-09-09T07:25:57;2.90;;;1.00;;
21501;SDS011;27639;48.674;9.242;2022-09-09T07:28:24;4.80;;;1.40;;
21501;SDS011;27639;48.674;9.242;2022-09-09T07:30:58;4.05;;;0.90;;
21501;SDS011;27639;48.674;9.242;2022-09-09T07:33:28;3.85;;;1.13;;
21501;SDS011;27639;48.674;9.242;2022-09-09T07:38:32;3.72;;;1.27;;
21501;SDS011;27639;48.674;9.242;2022-09-09T07:41:05;2.42;;;0.85;;
21501;SDS011;27639;48.674;9.242;2022-09-09T07:43:36;3.38;;;1.00;;
21501;SDS011;27639;48.674;9.242;2022-09-09T07:46:07;3.95;;;1.15;;
21501;SDS011;27639;48.674;9.242;2022-09-09T07:48:34;2.33;;;1.00;;
21501;SDS011;27639;48.674;9.242;2022-09-09T07:51:07;2.75;;;0.98;;
21501;SDS011;27639;48.674;9.242;2022-09-09T07:53:36;4.47;;;1.48;;
21501;SDS011;27639;48.674;9.242;2022-09-09T07:56:06;3.40;;;1.10;;
21501;SDS011;27639;48.674;9.242;2022-09-09T07:58:34;4.28;;;1.20;;
21501;SDS011;27639;48.674;9.242;2022-09-09T08:01:11;2.33;;;0.80;;
21501;SDS011;27639;48.674;9.242;2022-09-09T08:03:39;3.92;;;1.05;;
21501;SDS011;27639;48.674;9.242;2022-09-09T08:06:06;2.90;;;0.80;;
21501;SDS011;27639;48.674;9.242;2022-09-09T08:08:33;5.40;;;1.00;;
21501;SDS011;27639;48.674;9.242;2022-09-09T08:11:02;3.80;;;1.13;;
21501;SDS011;27639;48.674;9.242;2022-09-09T08:13:32;4.25;;;1.00;;
21501;SDS011;27639;48.674;9.242;2022-09-09T08:16:09;5.05;;;1.20;;
21501;SDS011;27639;48.674;9.242;2022-09-09T08:18:37;3.80;;;0.90;;
21501;SDS011;27639;48.674;9.242;2022-09-09T08:21:16;2.55;;;0.80;;
21501;SDS011;27639;48.674;9.242;2022-09-09T08:23:45;3.55;;;1.10;;
21501;SDS011;27639;48.674;9.242;2022-09-09T08:28:39;4.20;;;1.10;;
21501;SDS011;27639;48.674;9.242;2022-09-09T08:31:10;3.13;;;1.02;;
21501;SDS011;27639;48.674;9.242;2022-09-09T08:33:41;3.50;;;1.00;;
21501;SDS011;27639;48.674;9.242;2022-09-09T08:36:11;4.82;;;1.05;;
21501;SDS011;27639;48.674;9.242;2022-09-09T08:38:42;3.60;;;0.98;;
21501;SDS011;27639;48.674;9.242;2022-09-09T08:52:12;3.33;;;0.90;;
21501;SDS011;27639;48.674;9.242;2022-09-09T08:55:13;2.65;;;0.80;;
21501;SDS011;27639;48.674;9.242;2022-09-09T08:57:48;4.38;;;1.30;;
21501;SDS011;27639;48.674;9.242;2022-09-09T09:00:19;2.08;;;0.88;;
21501;SDS011;27639;48.674;9.242;2022-09-09T09:02:51;4.38;;;1.00;;
21501;SDS011;27639;48.674;9.242;2022-09-09T09:11:12;4.20;;;1.25;;
21501;SDS011;27639;48.674;9.242;2022-09-09T09:13:40;2.03;;;0.82;;
21501;SDS011;27639;48.674;9.242;2022-09-09T09:16:29;4.05;;;1.08;;
21501;SDS011;27639;48.674;9.242;2022-09-09T09:19:07;4.32;;;1.00;;
21501;SDS011;27639;48.674;9.242;2022-09-09T09:21:40;4.70;;;0.98;;
21501;SDS011;27639;48.674;9.242;2022-09-09T09:24:35;2.40;;;0.90;;
21501;SDS011;27639;48.674;9.242;2022-09-09T09:27:14;2.83;;;0.77;;
21501;SDS011;27639;48.674;9.242;2022-09-09T09:29:46;2.67;;;0.90;;
21501;SDS011;27639;48.674;9.242;2022-09-09T09:32:15;3.28;;;1.23;;
21501;SDS011;27639;48.674;9.242;2022-09-09T09:34:48;2.35;;;0.85;;
21501;SDS011;27639;48.674;9.242;2022-09-09T09:37:16;2.00;;;0.70;;
21501;SDS011;27639;48.674;9.242;2022-09-09T09:39:48;2.67;;;0.57;;
21501;SDS011;27639;48.674;9.242;2022-09-09T09:42:16;2.95;;;0.65;;
21501;SDS011;27639;48.674;9.242;2022-09-09T09:44:42;2.22;;;0.50;;
21501;SDS011;27639;48.674;9.242;2022-09-09T09:47:15;2.80;;;0.50;;
21501;SDS011;27639;48.674;9.242;2022-09-09T09:49:54;3.47;;;0.50;;
21501;SDS011;27639;48.674;9.242;2022-09-09T09:52:24;3.22;;;0.57;;
21501;SDS011;27639;48.674;9.242;2022-09-09T09:54:52;1.55;;;0.50;;
21501;SDS011;27639;48.674;9.242;2022-09-09T09:57:18;6.38;;;0.70;;
21501;SDS011;27639;48.674;9.242;2022-09-09T09:59:59;5.75;;;0.70;;
21501;SDS011;27639;48.674;9.242;2022-09-09T10:02:38;3.20;;;0.55;;
21501;SDS011;27639;48.674;9.242;2022-09-09T10:07:41;2.58;;;0.75;;
21501;SDS011;27639;48.674;9.242;2022-09-09T10:10:15;2.63;;;0.60;;
21501;SDS011;27639;48.674;9.242;2022-09-09T10:26:51;2.28;;;0.50;;
21501;SDS011;27639;48.674;9.242;2022-09-09T10:29:40;2.65;;;0.73;;
21501;SDS011;27639;48.674;9.242;2022-09-09T10:34:56;5.38;;;0.80;;
21501;SDS011;27639;48.674;9.242;2022-09-09T10:43:01;1.75;;;0.70;;
21501;SDS011;27639;48.674;9.242;2022-09-09T10:45:57;2.45;;;0.63;;
21501;SDS011;27639;48.674;9.242;2022-09-09T10:48:31;2.47;;;0.60;;
21501;SDS011;27639;48.674;9.242;2022-09-09T10:53:58;1.65;;;0.50;;
21501;SDS011;27639;48.674;9.242;2022-09-09T10:56:38;2.63;;;0.60;;
21501;SDS011;27639;48.674;9.242;2022-09-09T10:59:07;3.22;;;0.75;;
21501;SDS011;27639;48.674;9.242;2022-09-09T11:04:25;2.30;;;0.60;;
21501;SDS011;27639;48.674;9.242;2022-09-09T11:06:57;2.95;;;0.57;;
21501;SDS011;27639;48.674;9.242;2022-09-09T11:09:30;3.45;;;0.65;;
21501;SDS011;27639;48.674;9.242;2022-09-09T11:12:02;3.10;;;1.13;;
21501;SDS011;27639;48.674;9.242;2022-09-09T11:14:45;3.33;;;0.88;;
21501;SDS011;27639;48.674;9.242;2022-09-09T11:17:18;4.22;;;1.30;;
21501;SDS011;27639;48.674;9.242;2022-09-09T11:19:58;6.60;;;0.93;;
21501;SDS011;27639;48.674;9.242;2022-09-09T11:25:05;2.70;;;1.00;;
21501;SDS011;27639;48.674;9.242;2022-09-09T11:31:00;2.70;;;0.82;;
21501;SDS011;27639;48.674;9.242;2022-09-09T11:34:03;3.00;;;0.70;;
21501;SDS011;27639;48.674;9.242;2022-09-09T11:42:25;2.83;;;0.82;;
21501;SDS011;27639;48.674;9.242;2022-09-09T11:44:51;2.78;;;0.95;;
21501;SDS011;27639;48.674;9.242;2022-09-09T11:49:49;2.72;;;0.60;;
21501;SDS011;27639;48.674;9.242;2022-09-09T11:55:11;2.35;;;0.77;;
21501;SDS011;27639;48.674;9.242;2022-09-09T11:57:57;0.95;;;0.35;;
21501;SDS011;27639;48.674;9.242;2022-09-09T12:00:47;1.67;;;0.47;;
21501;SDS011;27639;48.674;9.242;2022-09-09T12:05:59;2.78;;;0.47;;
21501;SDS011;27639;48.674;9.242;2022-09-09T12:08:33;1.02;;;0.20;;
21501;SDS011;27639;48.674;9.242;2022-09-09T12:11:02;2.22;;;0.55;;
21501;SDS011;27639;48.674;9.242;2022-09-09T12:13:30;0.98;;;0.40;;
21501;SDS011;27639;48.674;9.242;2022-09-09T12:15:57;0.88;;;0.32;;
21501;SDS011;27639;48.674;9.242;2022-09-09T12:18:33;2.78;;;0.35;;
21501;SDS011;27639;48.674;9.242;2022-09-09T12:32:12;1.65;;;0.43;;
21501;SDS011;27639;48.674;9.242;2022-09-09T12:40:01;1.88;;;0.35;;
21501;SDS011;27639;48.674;9.242;2022-09-09T12:42:47;2.25;;;0.65;;
21501;SDS011;27639;48.674;9.242;2022-09-09T12:45:17;2.00;;;0.47;;
21501;SDS011;27639;48.674;9.242;2022-09-09T12:48:04;2.40;;;0.75;;
21501;SDS011;27639;48.674;9.242;2022-09-09T12:50:34;2.00;;;0.68;;
21501;SDS011;27639;48.674;9.242;2022-09-09T12:53:35;4.35;;;1.88;;
21501;SDS011;27639;48.674;9.242;2022-09-09T12:55:59;3.33;;;0.90;;
21501;SDS011;27639;48.674;9.242;2022-09-09T12:58:28;2.72;;;0.60;;
21501;SDS011;27639;48.674;9.242;2022-09-09T13:00:58;2.95;;;0.90;;
21501;SDS011;27639;48.674;9.242;2022-09-09T13:03:28;2.92;;;0.70;;
21501;SDS011;27639;48.674;9.242;2022-09-09T13:06:11;1.83;;;0.47;;
21501;SDS011;27639;48.674;9.242;2022-09-09T13:08:39;1.90;;;0.60;;
21501;SDS011;27639;48.674;9.242;2022-09-09T13:11:10;3.72;;;0.60;;
21501;SDS011;27639;48.674;9.242;2022-09-09T13:13:41;2.30;;;0.57;;
21501;SDS011;27639;48.674;9.242;2022-09-09T13:16:18;1.90;;;0.70;;
21501;SDS011;27639;48.674;9.242;2022-09-09T13:18:50;2.50;;;0.50;;
21501;SDS011;27639;48.674;9.242;2022-09-09T13:21:16;4.22;;;0.60;;
21501;SDS011;27639;48.674;9.242;2022-09-09T13:23:47;3.58;;;0.77;;
21501;SDS011;27639;48.674;9.242;2022-09-09T13:28:43;2.50;;;0.40;;
21501;SDS011;27639;48.674;9.242;2022-09-09T13:31:19;3.03;;;0.60;;
21501;SDS011;27639;48.674;9.242;2022-09-09T13:33:45;1.75;;;0.40;;
21501;SDS011;27639;48.674;9.242;2022-09-09T13:36:11;1.60;;;0.60;;
21501;SDS011;27639;48.674;9.242;2022-09-09T13:38:40;2.63;;;0.50;;
21501;SDS011;27639;48.674;9.242;2022-09-09T13:41:24;2.85;;;0.45;;
21501;SDS011;27639;48.674;9.242;2022-09-09T13:43:56;1.98;;;0.70;;
21501;SDS011;27639;48.674;9.242;2022-09-09T13:51:39;2.17;;;0.50;;
21501;SDS011;27639;48.674;9.242;2022-09-09T13:54:10;2.58;;;0.70;;
21501;SDS011;27639;48.674;9.242;2022-09-09T13:56:38;0.95;;;0.40;;
21501;SDS011;27639;48.674;9.242;2022-09-09T13:59:05;1.65;;;0.60;;
21501;SDS011;27639;48.674;9.242;2022-09-09T14:01:35;1.83;;;0.50;;
21501;SDS011;27639;48.674;9.242;2022-09-09T14:04:02;3.88;;;0.82;;
21501;SDS011;27639;48.674;9.242;2022-09-09T14:06:28;1.95;;;0.52;;
21501;SDS011;27639;48.674;9.242;2022-09-09T14:08:54;5.00;;;0.70;;
21501;SDS011;27639;48.674;9.242;2022-09-09T14:11:20;5.00;;;0.75;;
21501;SDS011;27639;48.674;9.242;2022-09-09T14:13:47;4.82;;;1.40;;
21501;SDS011;27639;48.674;9.242;2022-09-09T14:16:15;5.07;;;1.77;;
21501;SDS011;27639;48.674;9.242;2022-09-09T14:18:42;2.15;;;0.90;;
21501;SDS011;27639;48.674;9.242;2022-09-09T14:21:09;8.35;;;3.67;;
21501;SDS011;27639;48.674;9.242;2022-09-09T14:23:35;3.10;;;0.85;;
21501;SDS011;27639;48.674;9.242;2022-09-09T14:26:00;4.43;;;1.60;;
21501;SDS011;27639;48.674;9.242;2022-09-09T14:28:26;2.33;;;0.70;;
21501;SDS011;27639;48.674;9.242;2022-09-09T14:30:53;3.70;;;0.90;;
21501;SDS011;27639;48.674;9.242;2022-09-09T14:33:18;2.05;;;0.50;;
21501;SDS011;27639;48.674;9.242;2022-09-09T14:35:44;4.20;;;0.77;;
21501;SDS011;27639;48.674;9.242;2022-09-09T14:38:10;1.35;;;0.47;;
21501;SDS011;27639;48.674;9.242;2022-09-09T14:40:36;1.85;;;0.50;;
21501;SDS011;27639;48.674;9.242;2022-09-09T14:43:03;2.40;;;0.47;;
21501;SDS011;27639;48.674;9.242;2022-09-09T14:45:29;2.80;;;0.50;;
21501;SDS011;27639;48.674;9.242;2022-09-09T14:47:54;2.35;;;0.50;;
21501;SDS011;27639;48.674;9.242;2022-09-09T14:50:21;2.08;;;0.40;;
21501;SDS011;27639;48.674;9.242;2022-09-09T14:52:47;1.60;;;0.47;;
21501;SDS011;27639;48.674;9.242;2022-09-09T14:55:13;1.42;;;0.50;;
21501;SDS011;27639;48.674;9.242;2022-09-09T14:57:39;2.70;;;0.52;;
21501;SDS011;27639;48.674;9.242;2022-09-09T15:00:05;2.13;;;0.57;;
21501;SDS011;27639;48.674;9.242;2022-09-09T15:02:32;1.20;;;0.30;;
21501;SDS011;27639;48.674;9.242;2022-09-09T15:04:58;1.05;;;0.30;;
21501;SDS011;27639;48.674;9.242;2022-09-09T15:07:24;1.77;;;0.40;;
21501;SDS011;27639;48.674;9.242;2022-09-09T15:09:51;2.33;;;0.70;;
21501;SDS011;27639;48.674;9.242;2022-09-09T15:12:18;0.90;;;0.38;;
21501;SDS011;27639;48.674;9.242;2022-09-09T15:14:44;1.98;;;0.50;;
21501;SDS011;27639;48.674;9.242;2022-09-09T15:17:10;2.17;;;0.50;;
21501;SDS011;27639;48.674;9.242;2022-09-09T15:19:36;1.90;;;0.45;;
21501;SDS011;27639;48.674;9.242;2022-09-09T15:22:02;2.00;;;0.50;;
21501;SDS011;27639;48.674;9.242;2022-09-09T15:24:30;2.67;;;0.52;;
21501;SDS011;27639;48.674;9.242;2022-09-09T15:26:56;1.80;;;0.40;;
21501;SDS011;27639;48.674;9.242;2022-09-09T15:29:22;1.55;;;0.40;;
21501;SDS011;27639;48.674;9.242;2022-09-09T15:31:48;1.38;;;0.47;;
21501;SDS011;27639;48.674;9.242;2022-09-09T15:34:14;3.00;;;0.68;;
21501;SDS011;27639;48.674;9.242;2022-09-09T15:36:40;2.72;;;0.60;;
21501;SDS011;27639;48.674;9.242;2022-09-09T15:39:11;0.88;;;0.30;;
21501;SDS011;27639;48.674;9.242;2022-09-09T15:41:42;3.03;;;0.55;;
21501;SDS011;27639;48.674;9.242;2022-09-09T15:44:09;2.10;;;0.50;;
21501;SDS011;27639;48.674;9.242;2022-09-09T15:46:40;2.67;;;0.50;;
21501;SDS011;27639;48.674;9.242;2022-09-09T15:49:12;1.67;;;0.40;;
21501;SDS011;27639;48.674;9.242;2022-09-09T15:51:39;2.35;;;0.60;;
21501;SDS011;27639;48.674;9.242;2022-09-09T15:54:07;2.95;;;0.70;;
21501;SDS011;27639;48.674;9.242;2022-09-09T15:56:33;3.88;;;0.70;;
21501;SDS011;27639;48.674;9.242;2022-09-09T15:59:00;2.80;;;0.68;;
21501;SDS011;27639;48.674;9.242;2022-09-09T16:01:28;1.52;;;0.52;;
21501;SDS011;27639;48.674;9.242;2022-09-09T16:03:54;1.05;;;0.40;;
21501;SDS011;27639;48.674;9.242;2022-09-09T16:06:21;2.35;;;0.73;;
21501;SDS011;27639;48.674;9.242;2022-09-09T16:08:49;2.50;;;0.50;;
21501;SDS011;27639;48.674;9.242;2022-09-09T16:11:18;1.52;;;0.45;;
21501;SDS011;27639;48.674;9.242;2022-09-09T16:13:45;2.03;;;0.52;;
21501;SDS011;27639;48.674;9.242;2022-09-09T16:16:13;1.48;;;0.40;;
21501;SDS011;27639;48.674;9.242;2022-09-09T16:18:45;3.13;;;0.57;;
21501;SDS011;27639;48.674;9.242;2022-09-09T16:21:18;1.25;;;0.45;;
21501;SDS011;27639;48.674;9.242;2022-09-09T16:23:49;2.22;;;0.60;;
21501;SDS011;27639;48.674;9.242;2022-09-09T16:26:17;1.13;;;0.30;;
21501;SDS011;27639;48.674;9.242;2022-09-09T16:28:43;1.27;;;0.30;;
21501;SDS011;27639;48.674;9.242;2022-09-09T16:31:10;1.65;;;0.50;;
21501;SDS011;27639;48.674;9.242;2022-09-09T16:33:38;1.33;;;0.30;;
21501;SDS011;27639;48.674;9.242;2022-09-09T16:36:05;1.27;;;0.35;;
21501;SDS011;27639;48.674;9.242;2022-09-09T16:38:35;3.40;;;0.50;;
21501;SDS011;27639;48.674;9.242;2022-09-09T16:41:02;3.42;;;0.60;;
21501;SDS011;27639;48.674;9.242;2022-09-09T16:43:30;1.23;;;0.40;;
21501;SDS011;27639;48.674;9.242;2022-09-09T16:45:56;1.77;;;0.50;;
21501;SDS011;27639;48.674;9.242;2022-09-09T16:48:22;2.55;;;0.47;;
21501;SDS011;27639;48.674;9.242;2022-09-09T16:50:47;2.80;;;0.50;;
21501;SDS011;27639;48.674;9.242;2022-09-09T16:53:13;2.50;;;0.40;;
21501;SDS011;27639;48.674;9.242;2022-09-09T16:55:40;1.67;;;0.50;;
21501;SDS011;27639;48.674;9.242;2022-09-09T16:58:07;3.17;;;0.50;;
21501;SDS011;27639;48.674;9.242;2022-09-09T17:00:35;2.15;;;0.30;;
21501;SDS011;27639;48.674;9.242;2022-09-09T17:03:01;2.22;;;0.57;;
21501;SDS011;27639;48.674;9.242;2022-09-09T17:05:27;3.15;;;0.70;;
21501;SDS011;27639;48.674;9.242;2022-09-09T17:07:53;2.30;;;0.50;;
21501;SDS011;27639;48.674;9.242;2022-09-09T17:10:23;1.73;;;0.50;;
21501;SDS011;27639;48.674;9.242;2022-09-09T17:12:50;2.03;;;0.50;;
21501;SDS011;27639;48.674;9.242;2022-09-09T17:15:15;2.22;;;0.60;;
21501;SDS011;27639;48.674;9.242;2022-09-09T17:17:42;1.90;;;0.50;;
21501;SDS011;27639;48.674;9.242;2022-09-09T17:20:10;1.98;;;0.57;;
21501;SDS011;27639;48.674;9.242;2022-09-09T17:22:36;2.05;;;0.55;;
21501;SDS011;27639;48.674;9.242;2022-09-09T17:25:01;1.50;;;0.60;;
21501;SDS011;27639;48.674;9.242;2022-09-09T17:27:28;1.88;;;0.40;;
21501;SDS011;27639;48.674;9.242;2022-09-09T17:29:56;1.27;;;0.40;;